Time;durP1;ratioP1;P1;durP2;ratioP2;P2;SDS_P1;SDS_P2;PMS_P1;PMS_P2;Temp;Humidity;BMP_temperature;BMP_pressure;BME280_temperature;BME280_humidity;BME280_pressure;Samples;Min_cycle;Max_cycle;Signal;HPM_P1;HPM_P2
2022/04/09 00:01:06;;;;;;;15.07;3.67;;;3.90;99.90;;;;;;5040855;28;20049;-57
2022/04/09 00:03:34;;;;;;;13.85;3.58;;;4.00;99.90;;;;;;5047949;28;20116;-57
2022/04/09 00:06:03;;;;;;;12.57;3.45;;;4.00;99.90;;;;;;5034650;28;20504;-57
2022/04/09 00:08:29;;;;;;;10.18;2.67;;;4.00;99.90;;;;;;5035703;28;20053;-57
2022/04/09 00:10:55;;;;;;;16.85;3.95;;;4.00;99.90;;;;;;5036476;28;20055;-58
2022/04/09 00:13:21;;;;;;;9.30;4.00;;;4.10;99.90;;;;;;5050132;28;20295;-57
2022/04/09 00:15:47;;;;;;;15.65;3.92;;;4.10;99.90;;;;;;5040961;28;20382;-57
2022/04/09 00:18:16;;;;;;;12.63;3.40;;;4.20;99.90;;;;;;5040083;28;20322;-57
2022/04/09 00:20:43;;;;;;;12.73;3.00;;;4.20;99.90;;;;;;5051830;28;20045;-57
2022/04/09 00:23:10;;;;;;;11.98;2.60;;;4.20;99.90;;;;;;5038319;28;20068;-58
2022/04/09 00:25:36;;;;;;;6.15;2.40;;;4.20;99.90;;;;;;5052523;28;20041;-58
2022/04/09 00:28:03;;;;;;;7.53;1.60;;;4.10;99.90;;;;;;5038401;28;20045;-57
2022/04/09 00:30:29;;;;;;;8.35;2.38;;;4.10;99.90;;;;;;5039839;28;20127;-57
2022/04/09 00:32:55;;;;;;;10.52;2.47;;;4.00;99.90;;;;;;5040870;28;20045;-57
2022/04/09 00:35:21;;;;;;;9.20;2.58;;;4.00;99.90;;;;;;5035580;28;20107;-58
2022/04/09 00:37:48;;;;;;;12.10;3.40;;;3.90;99.90;;;;;;5017447;28;20052;-57
2022/04/09 00:40:18;;;;;;;15.40;3.95;;;3.90;99.90;;;;;;5041538;28;20053;-57
2022/04/09 00:42:45;;;;;;;13.77;3.25;;;3.90;99.90;;;;;;5033490;28;20567;-58
2022/04/09 00:45:13;;;;;;;10.70;2.97;;;3.80;99.90;;;;;;5039042;28;20045;-58
2022/04/09 00:47:40;;;;;;;11.82;4.00;;;3.90;99.90;;;;;;5024065;28;20135;-58
2022/04/09 00:50:08;;;;;;;14.88;2.95;;;3.90;99.90;;;;;;5039167;28;20049;-58
2022/04/09 00:52:38;;;;;;;14.80;2.95;;;3.90;99.90;;;;;;5020621;28;20052;-58
2022/04/09 00:55:05;;;;;;;9.63;2.65;;;4.00;99.90;;;;;;5038803;28;20729;-57
2022/04/09 00:57:35;;;;;;;9.30;2.67;;;4.10;99.90;;;;;;5021455;28;20049;-59
2022/04/09 01:00:12;;;;;;;12.90;2.92;;;4.20;99.90;;;;;;5038019;28;20574;-59
2022/04/09 01:02:44;;;;;;;14.68;2.90;;;4.20;99.90;;;;;;5037681;28;20045;-60
2022/04/09 01:05:11;;;;;;;12.97;3.80;;;4.20;99.90;;;;;;5037664;28;20033;-59
2022/04/09 01:07:38;;;;;;;10.98;2.97;;;4.20;99.90;;;;;;5057896;28;20064;-59
2022/04/09 01:10:08;;;;;;;14.65;3.20;;;4.30;99.90;;;;;;5039466;28;20052;-58
2022/04/09 01:12:36;;;;;;;10.75;2.70;;;4.30;99.90;;;;;;5024729;28;20509;-57
2022/04/09 01:15:07;;;;;;;13.00;2.50;;;4.20;99.90;;;;;;5043591;28;20044;-58
2022/04/09 01:17:36;;;;;;;8.77;2.33;;;4.20;99.90;;;;;;5041364;28;20045;-59
2022/04/09 01:20:20;;;;;;;7.53;2.28;;;4.30;99.90;;;;;;5045091;28;20053;-60
2022/04/09 01:22:49;;;;;;;13.40;2.75;;;4.20;99.90;;;;;;5044912;28;20673;-59
2022/04/09 01:25:15;;;;;;;12.88;2.40;;;4.20;99.90;;;;;;5041708;28;20111;-59
2022/04/09 01:27:46;;;;;;;13.77;2.38;;;4.30;99.90;;;;;;5041479;28;20106;-60
2022/04/09 01:30:13;;;;;;;7.60;2.50;;;4.20;99.90;;;;;;5036960;28;20110;-59
2022/04/09 01:32:39;;;;;;;9.93;2.60;;;4.20;99.90;;;;;;5038817;28;20045;-60
2022/04/09 01:35:06;;;;;;;9.57;2.60;;;4.20;99.90;;;;;;5041999;28;20041;-59
2022/04/09 01:37:32;;;;;;;11.70;2.70;;;4.20;99.90;;;;;;5056895;28;20472;-60
2022/04/09 01:39:59;;;;;;;11.93;3.25;;;4.30;99.90;;;;;;5062034;28;20055;-59
2022/04/09 01:42:26;;;;;;;13.27;3.30;;;4.30;99.90;;;;;;5055382;28;20052;-59
2022/04/09 01:44:55;;;;;;;8.25;3.00;;;4.30;99.90;;;;;;5040077;28;20057;-59
2022/04/09 01:47:21;;;;;;;15.93;3.72;;;4.30;99.90;;;;;;5023377;28;20052;-59
2022/04/09 01:49:48;;;;;;;13.52;3.45;;;4.20;99.90;;;;;;5040808;28;20060;-60
2022/04/09 01:52:14;;;;;;;16.05;4.32;;;4.20;99.90;;;;;;5053284;28;20045;-60
2022/04/09 01:54:40;;;;;;;8.40;2.90;;;4.20;99.90;;;;;;5043137;28;20045;-58
2022/04/09 01:57:06;;;;;;;10.93;3.53;;;4.10;99.90;;;;;;5043819;28;20079;-59
2022/04/09 01:59:33;;;;;;;12.50;3.50;;;4.10;99.90;;;;;;5042444;28;20572;-58
2022/04/09 02:02:00;;;;;;;11.50;3.90;;;4.10;99.90;;;;;;5024575;28;20046;-59
2022/04/09 02:04:26;;;;;;;11.35;2.92;;;4.00;99.90;;;;;;5009424;28;20037;-59
2022/04/09 02:06:52;;;;;;;13.35;3.00;;;4.00;99.90;;;;;;5042621;28;20129;-59
2022/04/09 02:09:18;;;;;;;13.70;3.55;;;4.00;99.90;;;;;;5041051;28;20056;-58
2022/04/09 02:11:45;;;;;;;16.98;2.78;;;3.90;99.90;;;;;;5041623;28;20051;-60
2022/04/09 02:14:11;;;;;;;13.63;2.97;;;3.90;99.90;;;;;;5045156;28;20048;-58
2022/04/09 02:16:39;;;;;;;13.98;3.92;;;3.90;99.90;;;;;;5039416;28;20042;-58
2022/04/09 02:19:05;;;;;;;14.10;3.47;;;3.80;99.90;;;;;;5022993;28;20151;-58
2022/04/09 02:21:32;;;;;;;13.85;3.10;;;3.80;99.90;;;;;;5041923;28;20425;-58
2022/04/09 02:23:58;;;;;;;12.57;3.05;;;3.70;99.90;;;;;;5026014;28;20428;-58
2022/04/09 02:26:24;;;;;;;10.52;2.85;;;3.60;99.90;;;;;;5026862;28;20428;-58
2022/04/09 02:28:52;;;;;;;11.43;2.65;;;3.50;99.90;;;;;;5039906;28;20573;-59
2022/04/09 02:31:22;;;;;;;10.02;4.15;;;3.50;99.90;;;;;;5039368;28;20052;-57
2022/04/09 02:33:48;;;;;;;17.15;3.50;;;3.50;99.90;;;;;;5022488;28;20117;-58
2022/04/09 02:36:16;;;;;;;15.73;4.18;;;3.50;99.90;;;;;;5041830;28;20415;-58
2022/04/09 02:38:43;;;;;;;13.02;3.05;;;3.40;99.90;;;;;;5025306;28;20103;-58
2022/04/09 02:41:10;;;;;;;16.02;3.33;;;3.40;99.90;;;;;;5021651;28;20123;-58
2022/04/09 02:43:37;;;;;;;12.35;2.78;;;3.40;99.90;;;;;;5021550;28;20071;-58
2022/04/09 02:46:04;;;;;;;10.25;2.75;;;3.30;99.90;;;;;;5008060;28;20068;-59
2022/04/09 02:48:34;;;;;;;8.95;2.83;;;3.30;99.90;;;;;;5041127;28;20536;-59
2022/04/09 02:51:00;;;;;;;11.52;2.65;;;3.20;99.90;;;;;;5055317;28;21559;-59
2022/04/09 02:53:26;;;;;;;9.10;2.75;;;3.20;99.90;;;;;;5057031;28;20060;-58
2022/04/09 02:55:55;;;;;;;13.73;2.42;;;3.20;99.90;;;;;;5024783;28;20060;-58
2022/04/09 02:58:21;;;;;;;8.98;2.47;;;3.20;99.90;;;;;;5038640;28;20463;-59
2022/04/09 03:00:49;;;;;;;6.47;2.03;;;3.10;99.90;;;;;;5026077;28;20064;-59
2022/04/09 03:03:18;;;;;;;7.22;1.92;;;3.10;99.90;;;;;;5045840;28;20101;-58
2022/04/09 03:05:48;;;;;;;6.72;1.65;;;3.00;99.90;;;;;;5034764;28;20041;-58
2022/04/09 03:08:14;;;;;;;8.93;2.53;;;3.00;99.90;;;;;;5039446;28;20064;-58
2022/04/09 03:10:41;;;;;;;10.20;2.58;;;3.00;99.90;;;;;;5038983;28;20492;-58
2022/04/09 03:13:07;;;;;;;8.27;1.92;;;3.00;99.90;;;;;;5056219;28;20076;-58
2022/04/09 03:15:33;;;;;;;5.40;1.42;;;3.00;99.90;;;;;;5024503;28;20244;-59
2022/04/09 03:18:00;;;;;;;6.90;2.28;;;3.00;99.90;;;;;;5026521;28;20094;-58
2022/04/09 03:20:28;;;;;;;10.73;2.05;;;3.10;99.90;;;;;;5053570;28;20094;-59
2022/04/09 03:22:55;;;;;;;15.10;2.20;;;3.00;99.90;;;;;;5024935;28;20053;-59
2022/04/09 03:25:40;;;;;;;13.80;2.72;;;3.10;99.90;;;;;;5039816;28;20661;-61
2022/04/09 03:28:06;;;;;;;8.75;2.17;;;3.10;99.90;;;;;;5027525;28;20455;-61
2022/04/09 03:30:35;;;;;;;10.88;2.33;;;3.10;99.90;;;;;;5041017;28;20677;-61
2022/04/09 03:33:01;;;;;;;10.70;2.35;;;3.10;99.90;;;;;;5041977;28;20037;-61
2022/04/09 03:35:31;;;;;;;9.68;1.92;;;3.20;99.90;;;;;;5026220;28;20052;-61
2022/04/09 03:37:58;;;;;;;9.45;2.35;;;3.20;99.90;;;;;;5058001;28;20067;-59
2022/04/09 03:40:35;;;;;;;10.52;1.70;;;3.20;99.90;;;;;;5039113;28;20051;-58
2022/04/09 03:43:01;;;;;;;5.25;1.50;;;3.30;99.90;;;;;;5037474;28;20069;-58
2022/04/09 03:45:28;;;;;;;10.68;2.28;;;3.30;99.90;;;;;;5022825;28;20049;-59
2022/04/09 03:47:55;;;;;;;8.50;1.70;;;3.20;99.90;;;;;;5039869;28;20076;-58
2022/04/09 03:50:22;;;;;;;7.72;2.20;;;3.20;99.90;;;;;;5038230;28;20110;-59
2022/04/09 03:52:50;;;;;;;4.75;1.60;;;3.20;99.90;;;;;;5052148;28;20056;-58
2022/04/09 03:55:16;;;;;;;7.70;1.75;;;3.20;99.90;;;;;;5039824;28;20195;-58
2022/04/09 03:57:43;;;;;;;11.02;2.28;;;3.20;99.90;;;;;;5008098;28;20051;-59
2022/04/09 04:00:10;;;;;;;13.75;2.00;;;3.20;99.90;;;;;;5040281;28;20041;-61
2022/04/09 04:02:47;;;;;;;8.35;2.08;;;3.30;99.90;;;;;;5021135;28;20036;-60
2022/04/09 04:05:16;;;;;;;5.28;1.55;;;3.30;99.90;;;;;;5023174;28;20512;-60
2022/04/09 04:07:45;;;;;;;5.75;1.50;;;3.40;99.90;;;;;;5054968;28;20447;-61
2022/04/09 04:10:13;;;;;;;14.20;2.00;;;3.40;99.90;;;;;;5032336;28;20063;-61
2022/04/09 04:12:42;;;;;;;7.22;2.17;;;3.40;99.90;;;;;;5057611;28;20064;-63
2022/04/09 04:15:09;;;;;;;10.25;1.85;;;3.40;99.90;;;;;;5039909;28;20359;-60
2022/04/09 04:17:44;;;;;;;10.70;2.25;;;3.40;99.90;;;;;;5041328;28;20120;-61
2022/04/09 04:20:14;;;;;;;7.40;1.65;;;3.40;99.90;;;;;;5023180;28;20558;-61
2022/04/09 04:22:42;;;;;;;7.43;1.40;;;3.40;99.90;;;;;;5055444;28;20075;-61
2022/04/09 04:25:09;;;;;;;8.57;1.70;;;3.40;99.90;;;;;;5040052;28;20036;-61
2022/04/09 04:27:46;;;;;;;8.18;1.55;;;3.30;99.90;;;;;;5039819;28;20053;-61
2022/04/09 04:30:15;;;;;;;8.93;1.60;;;3.20;99.90;;;;;;5056023;28;20118;-61
2022/04/09 04:32:42;;;;;;;4.57;1.40;;;3.20;99.90;;;;;;5038656;28;20037;-58
2022/04/09 04:35:10;;;;;;;8.90;2.00;;;3.20;99.90;;;;;;5038408;28;20471;-58
2022/04/09 04:37:36;;;;;;;8.40;1.83;;;3.10;99.90;;;;;;5037281;28;20036;-61
2022/04/09 04:40:04;;;;;;;9.23;1.95;;;3.10;99.90;;;;;;5034291;28;20049;-59
2022/04/09 04:42:30;;;;;;;7.47;1.60;;;3.10;99.90;;;;;;5039828;28;20507;-59
2022/04/09 04:44:58;;;;;;;8.98;1.85;;;3.00;99.90;;;;;;5003847;28;20324;-59
2022/04/09 04:47:25;;;;;;;6.18;1.75;;;3.10;99.90;;;;;;5027099;28;20076;-61
2022/04/09 04:49:52;;;;;;;7.38;1.77;;;3.10;99.90;;;;;;5004639;28;20049;-59
2022/04/09 04:52:19;;;;;;;8.77;1.75;;;3.10;99.90;;;;;;5043990;28;20086;-59
2022/04/09 04:54:45;;;;;;;7.82;1.90;;;3.10;99.90;;;;;;5027299;28;20094;-62
2022/04/09 04:57:11;;;;;;;8.50;2.22;;;3.20;99.90;;;;;;5042547;28;20049;-59
2022/04/09 04:59:38;;;;;;;6.60;2.22;;;3.30;99.90;;;;;;5011286;28;20048;-61
2022/04/09 05:02:04;;;;;;;10.48;2.03;;;3.30;99.90;;;;;;5046781;28;20049;-61
2022/04/09 05:04:31;;;;;;;9.25;1.67;;;3.40;99.90;;;;;;5010866;28;20063;-62
2022/04/09 05:07:01;;;;;;;7.75;2.00;;;3.50;99.90;;;;;;5041943;28;20040;-60
2022/04/09 05:09:27;;;;;;;7.70;2.05;;;3.50;99.90;;;;;;5062088;28;20132;-62
2022/04/09 05:11:55;;;;;;;10.10;1.65;;;3.60;99.90;;;;;;5010261;28;20134;-60
2022/04/09 05:14:29;;;;;;;11.82;2.03;;;3.70;99.90;;;;;;5038904;28;20707;-60
2022/04/09 05:17:00;;;;;;;7.63;2.00;;;3.80;99.90;;;;;;5036338;28;20088;-62
2022/04/09 05:19:29;;;;;;;8.60;2.47;;;3.80;99.90;;;;;;5029487;28;20051;-62
2022/04/09 05:22:10;;;;;;;6.82;2.10;;;3.80;99.90;;;;;;5029721;28;20044;-62
2022/04/09 05:24:45;;;;;;;8.35;2.20;;;3.80;99.90;;;;;;5042111;28;20041;-61
2022/04/09 05:27:12;;;;;;;9.43;2.20;;;3.80;99.90;;;;;;5058696;28;20041;-60
2022/04/09 05:29:39;;;;;;;7.40;1.98;;;3.70;99.90;;;;;;5042466;28;20405;-62
2022/04/09 05:32:06;;;;;;;7.32;1.90;;;3.70;99.90;;;;;;5025680;28;20037;-61
2022/04/09 05:34:36;;;;;;;9.95;2.42;;;3.60;99.90;;;;;;5040824;28;20041;-60
2022/04/09 05:37:02;;;;;;;8.45;1.98;;;3.60;99.90;;;;;;5044062;28;20095;-60
2022/04/09 05:39:28;;;;;;;6.13;1.92;;;3.60;99.90;;;;;;5040992;28;20300;-61
2022/04/09 05:41:54;;;;;;;8.63;2.08;;;3.50;99.90;;;;;;5021763;28;20068;-63
2022/04/09 05:44:21;;;;;;;11.85;2.38;;;3.60;99.90;;;;;;5022045;28;20110;-60
2022/04/09 05:46:47;;;;;;;11.00;2.30;;;3.70;99.90;;;;;;5020217;28;20076;-61
2022/04/09 05:49:14;;;;;;;8.90;2.00;;;3.80;99.90;;;;;;5041959;28;20248;-59
2022/04/09 05:51:42;;;;;;;8.25;2.13;;;3.90;99.90;;;;;;5043163;28;20106;-58
2022/04/09 05:54:09;;;;;;;8.90;2.22;;;4.10;99.90;;;;;;4995916;28;20076;-61
2022/04/09 05:56:39;;;;;;;6.82;2.10;;;4.20;99.90;;;;;;5039508;28;20049;-59
2022/04/09 05:59:06;;;;;;;7.18;2.08;;;4.40;99.90;;;;;;5041261;28;20045;-60
2022/04/09 06:01:33;;;;;;;9.82;1.83;;;4.60;99.90;;;;;;5041005;28;20184;-61
2022/04/09 06:03:59;;;;;;;9.05;2.17;;;4.80;99.90;;;;;;5024358;28;20052;-61
2022/04/09 06:06:25;;;;;;;7.57;1.40;;;4.80;99.90;;;;;;5041054;28;20047;-59
2022/04/09 06:08:56;;;;;;;6.25;1.48;;;4.90;99.90;;;;;;5056281;28;20044;-59
2022/04/09 06:11:30;;;;;;;11.40;1.90;;;4.80;99.90;;;;;;5039059;28;21476;-61
2022/04/09 06:14:02;;;;;;;;;;;4.80;99.90;;;;;;5042898;28;20131;-59
2022/04/09 06:16:30;;;;;;;8.88;1.95;;;4.80;99.90;;;;;;5043313;28;19927;-60
2022/04/09 06:18:59;;;;;;;9.60;1.70;;;4.80;99.90;;;;;;5041388;28;20052;-61
2022/04/09 06:21:29;;;;;;;6.53;1.60;;;4.80;99.90;;;;;;5042973;28;20337;-59
2022/04/09 06:23:56;;;;;;;10.60;2.17;;;4.80;99.90;;;;;;5026844;28;20077;-60
2022/04/09 06:26:22;;;;;;;8.75;1.90;;;4.90;99.90;;;;;;5039519;28;20045;-59
2022/04/09 06:28:50;;;;;;;7.63;1.67;;;4.80;99.90;;;;;;5011292;28;20508;-61
2022/04/09 06:31:16;;;;;;;5.88;1.40;;;4.90;99.90;;;;;;5026093;28;20221;-59
2022/04/09 06:33:42;;;;;;;8.60;1.60;;;5.10;99.90;;;;;;5043384;28;20507;-59
2022/04/09 06:36:11;;;;;;;10.02;1.88;;;5.30;99.90;;;;;;5040110;28;20041;-59
2022/04/09 06:38:37;;;;;;;9.45;2.20;;;5.40;99.90;;;;;;5055576;28;20049;-60
2022/04/09 06:41:09;;;;;;;6.05;1.58;;;5.60;99.90;;;;;;5056513;28;20045;-61
2022/04/09 06:43:39;;;;;;;11.18;2.33;;;5.70;99.90;;;;;;5043898;28;20041;-60
2022/04/09 06:46:34;;;;;;;9.63;2.25;;;5.80;99.90;;;;;;5014796;28;20060;-60
2022/04/09 06:49:14;;;;;;;9.88;1.67;;;6.00;99.90;;;;;;5040542;28;20068;-59
2022/04/09 06:52:18;;;;;;;10.48;2.25;;;6.20;99.90;;;;;;5048504;28;20055;-59
2022/04/09 06:55:11;;;;;;;12.88;2.10;;;6.30;99.90;;;;;;5039188;28;20056;-59
2022/04/09 06:57:41;;;;;;;11.70;2.20;;;6.60;99.90;;;;;;5052399;28;20052;-59
2022/04/09 07:00:14;;;;;;;7.57;2.58;;;6.60;99.90;;;;;;5041209;28;20127;-58
2022/04/09 07:02:41;;;;;;;9.80;2.40;;;6.60;99.90;;;;;;5049517;28;20446;-58
2022/04/09 07:05:08;;;;;;;11.43;2.83;;;6.90;99.90;;;;;;5043204;28;20041;-59
2022/04/09 07:07:34;;;;;;;12.35;2.33;;;7.30;99.90;;;;;;5040531;28;20043;-59
2022/04/09 07:10:05;;;;;;;11.50;2.30;;;7.40;99.90;;;;;;5054128;28;20041;-59
2022/04/09 07:12:31;;;;;;;10.40;2.33;;;7.40;99.90;;;;;;5041983;28;20064;-60
2022/04/09 07:14:58;;;;;;;10.70;2.10;;;7.20;99.90;;;;;;5041779;28;20094;-61
2022/04/09 07:17:29;;;;;;;11.57;2.38;;;7.10;99.90;;;;;;5039558;28;20053;-60
2022/04/09 07:20:03;;;;;;;8.18;2.08;;;7.00;99.90;;;;;;5042100;28;20052;-61
2022/04/09 07:22:29;;;;;;;11.38;2.33;;;7.30;99.90;;;;;;5057860;28;20479;-62
2022/04/09 07:24:55;;;;;;;8.90;1.80;;;7.70;99.90;;;;;;5058155;28;20037;-61
2022/04/09 07:27:32;;;;;;;11.07;2.38;;;7.80;99.90;;;;;;5040261;28;20090;-60
2022/04/09 07:29:59;;;;;;;6.75;1.60;;;8.40;99.90;;;;;;5042432;28;20528;-60
2022/04/09 07:32:34;;;;;;;5.93;1.40;;;8.30;99.90;;;;;;5098408;27;20451;-60
2022/04/09 07:35:00;;;;;;;9.45;1.55;;;8.20;99.90;;;;;;5096621;28;20494;-60
2022/04/09 07:37:26;;;;;;;9.82;2.03;;;8.60;99.90;;;;;;5099958;28;20054;-59
2022/04/09 07:39:52;;;;;;;9.35;1.88;;;8.90;99.90;;;;;;5096134;28;20133;-54
2022/04/09 07:42:22;;;;;;;10.13;2.25;;;8.90;99.90;;;;;;5100681;28;20066;-59
2022/04/09 07:44:48;;;;;;;8.43;2.63;;;9.30;99.90;;;;;;5081468;28;20699;-56
2022/04/09 07:47:15;;;;;;;11.05;2.45;;;9.70;99.90;;;;;;5114832;28;20051;-55
2022/04/09 07:49:46;;;;;;;17.52;4.43;;;9.60;99.90;;;;;;5083443;28;20395;-55
2022/04/09 07:52:13;;;;;;;9.67;1.97;;;9.90;99.90;;;;;;5096813;28;20128;-56
2022/04/09 07:54:39;;;;;;;11.57;3.47;;;9.60;99.90;;;;;;5100185;28;20345;-55
2022/04/09 07:57:06;;;;;;;8.82;2.00;;;9.90;99.90;;;;;;5099506;28;20040;-54
2022/04/09 07:59:32;;;;;;;11.60;2.40;;;10.20;99.90;;;;;;5110484;28;20050;-55
2022/04/09 08:01:58;;;;;;;11.82;2.42;;;10.20;99.90;;;;;;5098833;28;20075;-55
2022/04/09 08:04:24;;;;;;;9.95;1.90;;;9.90;99.90;;;;;;5100585;28;20090;-54
2022/04/09 08:06:51;;;;;;;11.90;1.80;;;9.80;99.90;;;;;;5124306;27;20260;-55
2022/04/09 08:09:17;;;;;;;8.45;3.22;;;10.00;99.90;;;;;;5093872;28;20422;-55
2022/04/09 08:11:44;;;;;;;11.00;2.20;;;10.50;99.90;;;;;;5094394;28;20082;-54
2022/04/09 08:14:10;;;;;;;8.77;1.98;;;10.60;99.90;;;;;;5082183;28;20040;-54
2022/04/09 08:16:37;;;;;;;8.25;2.63;;;10.80;99.90;;;;;;5098601;28;20044;-55
2022/04/09 08:19:03;;;;;;;9.38;2.35;;;10.60;99.90;;;;;;5078509;28;20036;-54
2022/04/09 08:21:29;;;;;;;7.25;1.45;;;10.40;99.90;;;;;;5093689;28;20056;-54
2022/04/09 08:23:56;;;;;;;9.13;1.80;;;10.00;99.90;;;;;;5087118;28;20865;-54
2022/04/09 08:26:24;;;;;;;8.18;1.98;;;10.30;99.90;;;;;;5094420;28;20055;-55
2022/04/09 08:28:51;;;;;;;8.45;1.70;;;10.60;99.90;;;;;;5100071;28;20035;-56
2022/04/09 08:31:17;;;;;;;7.38;1.67;;;10.60;99.90;;;;;;5096043;28;20442;-54
2022/04/09 08:33:43;;;;;;;8.98;3.20;;;10.80;99.90;;;;;;5100144;28;20120;-55
2022/04/09 08:36:09;;;;;;;8.73;1.55;;;10.80;99.90;;;;;;5098459;28;20078;-55
2022/04/09 08:38:36;;;;;;;10.02;1.85;;;10.40;99.90;;;;;;5099872;28;20044;-50
2022/04/09 08:41:03;;;;;;;42.08;31.73;;;10.80;99.90;;;;;;5075020;28;20044;-60
2022/04/09 08:43:32;;;;;;;6.70;1.80;;;10.70;99.90;;;;;;5078872;28;20069;-60
2022/04/09 08:46:02;;;;;;;8.57;3.38;;;10.60;99.90;;;;;;5061487;28;20776;-66
2022/04/09 08:48:28;;;;;;;7.97;1.40;;;10.10;99.90;;;;;;5065822;28;20088;-62
2022/04/09 08:50:55;;;;;;;7.65;1.75;;;9.70;99.90;;;;;;5055081;28;20067;-62
2022/04/09 08:53:21;;;;;;;5.43;1.95;;;9.60;99.90;;;;;;5049276;28;20048;-62
2022/04/09 08:55:48;;;;;;;6.05;1.52;;;9.40;99.90;;;;;;5081299;28;20059;-62
2022/04/09 08:58:14;;;;;;;6.88;1.75;;;9.50;99.90;;;;;;5083350;28;20082;-62
2022/04/09 09:00:42;;;;;;;8.52;1.35;;;9.40;99.90;;;;;;5084127;28;20518;-62
2022/04/09 09:03:10;;;;;;;6.28;1.52;;;9.60;99.90;;;;;;5084759;28;20051;-60
2022/04/09 09:05:48;;;;;;;5.57;1.70;;;9.70;99.90;;;;;;5081330;28;20044;-61
2022/04/09 09:08:14;;;;;;;7.43;1.40;;;10.60;99.90;;;;;;5084115;28;20195;-54
2022/04/09 09:10:41;;;;;;;6.35;1.35;;;10.70;99.90;;;;;;5085721;28;20407;-64
2022/04/09 09:13:12;;;;;;;8.57;1.65;;;11.00;99.90;;;;;;5083716;28;20041;-64
2022/04/09 09:15:52;;;;;;;7.47;1.65;;;10.70;99.90;;;;;;5085374;28;20051;-64
2022/04/09 09:18:23;;;;;;;5.18;1.63;;;11.30;99.90;;;;;;5079107;28;20127;-65
2022/04/09 09:20:55;;;;;;;6.57;1.60;;;11.90;99.90;;;;;;5079472;28;20051;-64
2022/04/09 09:23:22;;;;;;;4.53;1.27;;;11.90;99.90;;;;;;5082378;28;20109;-63
2022/04/09 09:25:53;;;;;;;9.23;1.67;;;12.00;99.90;;;;;;5060428;28;20044;-65
2022/04/09 09:28:26;;;;;;;5.73;1.27;;;12.00;99.90;;;;;;5080392;28;20036;-65
2022/04/09 09:30:53;;;;;;;6.78;1.65;;;11.60;99.90;;;;;;5075541;28;20137;-65
2022/04/09 09:33:20;;;;;;;9.40;1.65;;;12.20;99.90;;;;;;5078482;28;20048;-65
2022/04/09 09:35:47;;;;;;;7.18;1.63;;;12.10;99.90;;;;;;5072449;28;20036;-59
2022/04/09 09:38:27;;;;;;;6.82;1.58;;;11.50;99.90;;;;;;5062952;28;20040;-58
2022/04/09 09:40:54;;;;;;;7.03;1.73;;;11.20;99.90;;;;;;5063499;28;20109;-58
2022/04/09 09:43:25;;;;;;;7.10;1.40;;;11.20;99.90;;;;;;5082821;28;20063;-58
2022/04/09 09:45:53;;;;;;;5.50;1.52;;;11.50;93.30;;;;;;5082345;28;20044;-58
2022/04/09 09:48:33;;;;;;;6.20;1.50;;;11.00;90.10;;;;;;5080337;28;20036;-58
2022/04/09 09:50:59;;;;;;;5.70;1.60;;;11.80;89.80;;;;;;5083117;28;20123;-65
2022/04/09 09:53:32;;;;;;;7.22;1.58;;;12.10;92.90;;;;;;5064387;28;20040;-66
2022/04/09 09:56:02;;;;;;;8.38;1.85;;;11.50;79.40;;;;;;5063807;28;20130;-65
2022/04/09 09:58:29;;;;;;;7.60;1.98;;;11.80;89.00;;;;;;5081240;28;20040;-65
2022/04/09 10:00:56;;;;;;;9.43;1.48;;;11.60;86.20;;;;;;5081687;28;20047;-66
2022/04/09 10:03:24;;;;;;;8.25;2.03;;;12.10;78.80;;;;;;5081723;28;20055;-65
2022/04/09 10:05:50;;;;;;;11.80;4.95;;;12.10;77.50;;;;;;5081165;28;20580;-58
2022/04/09 10:08:18;;;;;;;9.82;2.83;;;12.10;70.80;;;;;;5081700;28;20044;-59
2022/04/09 10:10:50;;;;;;;8.68;2.10;;;11.90;67.80;;;;;;5081282;28;20112;-58
2022/04/09 10:13:21;;;;;;;10.88;3.58;;;11.80;89.20;;;;;;5080987;28;20119;-58
2022/04/09 10:15:50;;;;;;;6.68;1.65;;;11.30;90.10;;;;;;5047415;28;20110;-59
2022/04/09 10:18:22;;;;;;;7.20;1.70;;;10.00;99.90;;;;;;5082392;28;20043;-58
2022/04/09 10:21:00;;;;;;;9.82;2.17;;;9.40;99.90;;;;;;5078939;28;20059;-59
2022/04/09 10:23:35;;;;;;;7.22;2.42;;;9.00;99.90;;;;;;5061612;28;20062;-59
2022/04/09 10:26:02;;;;;;;10.10;2.13;;;8.80;99.90;;;;;;5080417;28;20058;-59
2022/04/09 10:28:36;;;;;;;9.40;1.63;;;8.90;99.90;;;;;;5081633;28;20044;-58
2022/04/09 10:31:25;;;;;;;6.00;1.60;;;9.80;99.90;;;;;;5046963;28;20058;-59
2022/04/09 10:33:54;;;;;;;5.70;1.15;;;10.60;99.90;;;;;;5080182;28;20534;-59
2022/04/09 10:36:42;;;;;;;5.90;1.17;;;11.40;99.90;;;;;;5064098;28;20512;-59
2022/04/09 10:39:40;;;;;;;4.65;1.33;;;11.90;99.90;;;;;;5078242;28;20129;-59
2022/04/09 10:42:10;;;;;;;6.15;1.73;;;12.10;95.90;;;;;;5080283;28;20044;-59
2022/04/09 10:44:51;;;;;;;8.25;2.05;;;12.80;99.90;;;;;;5081316;28;20065;-60
2022/04/09 10:47:18;;;;;;;7.07;1.83;;;13.60;99.90;;;;;;5081483;28;20143;-60
2022/04/09 10:50:02;;;;;;;9.38;1.85;;;14.10;91.60;;;;;;5079734;28;20440;-60
2022/04/09 10:52:30;;;;;;;7.72;1.85;;;13.50;70.70;;;;;;5081382;28;20564;-61
2022/04/09 10:55:20;;;;;;;8.85;2.55;;;12.80;71.70;;;;;;5063419;28;20502;-59
2022/04/09 10:57:47;;;;;;;6.47;1.48;;;11.70;91.20;;;;;;5080181;28;20047;-59
2022/04/09 11:00:22;;;;;;;7.15;1.80;;;10.40;99.90;;;;;;5081679;28;20127;-59
2022/04/09 11:03:04;;;;;;;6.30;1.35;;;9.30;99.90;;;;;;5082198;28;20052;-59
2022/04/09 11:05:30;;;;;;;4.35;1.17;;;8.40;99.90;;;;;;5046246;28;20055;-60
2022/04/09 11:08:10;;;;;;;4.70;1.08;;;7.90;99.90;;;;;;5079904;28;20044;-59
2022/04/09 11:10:36;;;;;;;6.22;1.27;;;7.60;99.90;;;;;;5081440;28;20068;-58
2022/04/09 11:13:03;;;;;;;4.50;1.27;;;7.50;99.90;;;;;;5079935;28;20651;-58
2022/04/09 11:15:29;;;;;;;4.03;0.98;;;7.10;99.90;;;;;;5079668;28;20044;-58
2022/04/09 11:18:02;;;;;;;3.67;0.90;;;7.30;99.90;;;;;;5079630;28;20399;-58
2022/04/09 11:20:36;;;;;;;4.18;1.05;;;7.20;99.90;;;;;;5077617;28;20087;-59
2022/04/09 11:23:16;;;;;;;5.63;1.55;;;7.70;99.90;;;;;;5062580;28;20047;-67
2022/04/09 11:25:44;;;;;;;4.00;1.95;;;8.30;99.90;;;;;;5081084;28;20510;-58
2022/04/09 11:28:14;;;;;;;6.40;1.33;;;9.20;99.90;;;;;;5080741;28;20047;-59
2022/04/09 11:31:03;;;;;;;8.00;1.55;;;9.80;99.90;;;;;;5078207;28;20442;-59
2022/04/09 11:33:30;;;;;;;6.43;1.73;;;10.90;99.90;;;;;;5080042;28;20048;-68
2022/04/09 11:35:57;;;;;;;9.43;2.08;;;11.70;99.90;;;;;;5081343;28;20036;-68
2022/04/09 11:38:24;;;;;;;5.22;1.52;;;11.90;99.90;;;;;;5080313;28;20082;-68
2022/04/09 11:40:50;;;;;;;6.90;1.63;;;11.80;99.90;;;;;;5080099;28;20576;-69
2022/04/09 11:43:18;;;;;;;6.95;2.03;;;12.00;99.90;;;;;;5081169;28;20486;-60
2022/04/09 11:45:45;;;;;;;6.38;1.58;;;12.60;99.90;;;;;;5079441;28;20094;-60
2022/04/09 11:48:19;;;;;;;10.98;1.80;;;12.70;99.90;;;;;;5079638;28;20048;-69
2022/04/09 11:50:46;;;;;;;9.07;2.08;;;11.90;99.90;;;;;;5080809;28;20086;-69
2022/04/09 11:53:16;;;;;;;9.95;2.03;;;11.00;99.90;;;;;;5080716;28;20048;-68
2022/04/09 11:55:44;;;;;;;8.77;2.33;;;10.40;99.90;;;;;;5080856;28;20071;-60
2022/04/09 11:58:16;;;;;;;8.40;3.05;;;10.10;99.90;;;;;;5080127;28;20040;-59
2022/04/09 12:00:45;;;;;;;10.45;2.72;;;10.30;99.90;;;;;;5081476;28;20050;-59
2022/04/09 12:03:13;;;;;;;9.07;1.83;;;10.60;99.90;;;;;;5081769;28;20495;-60
2022/04/09 12:05:43;;;;;;;9.63;1.98;;;11.10;99.90;;;;;;5080234;28;20048;-59
2022/04/09 12:08:17;;;;;;;10.15;1.95;;;11.20;99.90;;;;;;5063126;28;20052;-60
2022/04/09 12:10:57;;;;;;;8.57;1.80;;;11.50;99.90;;;;;;5080677;28;20044;-60
2022/04/09 12:13:37;;;;;;;7.22;1.73;;;11.70;99.90;;;;;;5080744;28;20582;-60
2022/04/09 12:16:15;;;;;;;5.22;1.48;;;12.60;99.90;;;;;;5062378;28;20051;-60
2022/04/09 12:18:42;;;;;;;4.30;1.40;;;12.70;99.90;;;;;;5083045;28;20089;-60
2022/04/09 12:21:20;;;;;;;6.78;1.20;;;11.90;99.90;;;;;;5079609;28;20056;-68
2022/04/09 12:23:46;;;;;;;6.30;1.40;;;12.10;99.90;;;;;;5082662;28;20040;-60
2022/04/09 12:26:24;;;;;;;5.07;1.20;;;12.50;99.90;;;;;;5082853;28;20052;-59
2022/04/09 12:29:26;;;;;;;4.82;1.50;;;13.20;99.90;;;;;;5083593;28;20082;-60
2022/04/09 12:32:18;;;;;;;5.28;1.30;;;13.30;99.90;;;;;;5082812;28;20048;-61
2022/04/09 12:34:55;;;;;;;8.32;2.08;;;12.40;99.90;;;;;;5065965;28;20108;-68
2022/04/09 12:37:22;;;;;;;4.22;1.15;;;11.50;99.90;;;;;;5082701;28;20056;-68
2022/04/09 12:39:50;;;;;;;4.80;1.23;;;10.70;99.90;;;;;;5083792;28;20449;-68
2022/04/09 12:42:16;;;;;;;4.70;1.00;;;10.10;99.90;;;;;;5084118;28;20067;-68
2022/04/09 12:44:45;;;;;;;5.38;1.50;;;9.80;99.90;;;;;;5084459;28;20516;-67
2022/04/09 12:47:20;;;;;;;6.30;2.15;;;9.80;99.90;;;;;;5066190;28;20154;-68
2022/04/09 12:49:46;;;;;;;7.88;2.20;;;9.50;99.90;;;;;;5083768;28;20028;-68
2022/04/09 12:52:12;;;;;;;5.22;1.20;;;9.40;99.90;;;;;;5065626;28;20130;-68
2022/04/09 12:54:39;;;;;;;4.00;1.02;;;10.00;99.90;;;;;;5081902;28;20097;-68
2022/04/09 12:57:08;;;;;;;3.22;1.05;;;10.10;99.90;;;;;;5082361;28;20040;-68
2022/04/09 12:59:35;;;;;;;5.15;1.20;;;9.80;99.90;;;;;;5049903;28;20047;-68
2022/04/09 13:02:03;;;;;;;3.50;1.13;;;10.60;99.90;;;;;;5065848;28;20043;-68